sensor_id;sensor_type;location;lat;lon;timestamp;P1;P2;P0
61804;PMS7003;47725;47.912;7.356;2024-01-06T00:00:12;17.43;17.43;
61804;PMS7003;47725;47.912;7.356;2024-01-06T00:04:12;17.43;17.43;
61804;PMS7003;47725;47.912;7.356;2024-01-06T00:08:12;17.45;15.62;
61804;PMS7003;47725;47.912;7.356;2024-01-06T00:12:12;17.45;15.62;
61804;PMS7003;47725;47.912;7.356;2024-01-06T00:16:12;17.45;15.62;
61804;PMS7003;47725;47.912;7.356;2024-01-06T00:20:12;17.47;16.55;
61804;PMS7003;47725;47.912;7.356;2024-01-06T00:24:12;17.47;16.55;
61804;PMS7003;47725;47.912;7.356;2024-01-06T00:28:12;15.64;13.80;
61804;PMS7003;47725;47.912;7.356;2024-01-06T00:32:12;15.64;13.80;
61804;PMS7003;47725;47.912;7.356;2024-01-06T00:36:12;15.64;13.80;
61804;PMS7003;47725;47.912;7.356;2024-01-06T00:40:12;29.45;24.85;
61804;PMS7003;47725;47.912;7.356;2024-01-06T00:44:12;29.45;24.85;
61804;PMS7003;47725;47.912;7.356;2024-01-06T00:48:12;16.59;15.67;
61804;PMS7003;47725;47.912;7.356;2024-01-06T00:52:12;16.59;15.67;
61804;PMS7003;47725;47.912;7.356;2024-01-06T00:56:12;16.59;15.67;
61804;PMS7003;47725;47.912;7.356;2024-01-06T01:00:12;18.40;18.40;
61804;PMS7003;47725;47.912;7.356;2024-01-06T01:04:12;18.40;18.40;
61804;PMS7003;47725;47.912;7.356;2024-01-06T01:08:12;18.41;16.57;
61804;PMS7003;47725;47.912;7.356;2024-01-06T01:12:12;18.41;16.57;
61804;PMS7003;47725;47.912;7.356;2024-01-06T01:16:12;18.41;16.57;
61804;PMS7003;47725;47.912;7.356;2024-01-06T01:20:12;17.49;17.49;
61804;PMS7003;47725;47.912;7.356;2024-01-06T01:24:12;17.49;17.49;
61804;PMS7003;47725;47.912;7.356;2024-01-06T01:28:12;18.39;16.55;
61804;PMS7003;47725;47.912;7.356;2024-01-06T01:32:12;18.39;16.55;
61804;PMS7003;47725;47.912;7.356;2024-01-06T01:36:12;18.39;16.55;
61804;PMS7003;47725;47.912;7.356;2024-01-06T01:40:12;14.69;14.69;
61804;PMS7003;47725;47.912;7.356;2024-01-06T01:44:12;14.69;14.69;
61804;PMS7003;47725;47.912;7.356;2024-01-06T01:48:12;21.16;19.32;
61804;PMS7003;47725;47.912;7.356;2024-01-06T01:52:12;21.16;19.32;
61804;PMS7003;47725;47.912;7.356;2024-01-06T01:56:12;21.16;19.32;
61804;PMS7003;47725;47.912;7.356;2024-01-06T02:00:12;21.17;18.41;
61804;PMS7003;47725;47.912;7.356;2024-01-06T02:04:12;21.17;18.41;
61804;PMS7003;47725;47.912;7.356;2024-01-06T02:08:11;20.25;20.25;
61804;PMS7003;47725;47.912;7.356;2024-01-06T02:12:11;20.25;20.25;
61804;PMS7003;47725;47.912;7.356;2024-01-06T02:16:11;20.25;20.25;
61804;PMS7003;47725;47.912;7.356;2024-01-06T02:20:11;20.28;16.59;
61804;PMS7003;47725;47.912;7.356;2024-01-06T02:24:12;20.28;16.59;
61804;PMS7003;47725;47.912;7.356;2024-01-06T02:28:11;19.39;16.62;
61804;PMS7003;47725;47.912;7.356;2024-01-06T02:32:11;19.39;16.62;
61804;PMS7003;47725;47.912;7.356;2024-01-06T02:36:11;19.39;16.62;
61804;PMS7003;47725;47.912;7.356;2024-01-06T02:40:12;24.86;20.25;
61804;PMS7003;47725;47.912;7.356;2024-01-06T02:44:12;24.86;20.25;
61804;PMS7003;47725;47.912;7.356;2024-01-06T02:48:11;28.50;23.91;
61804;PMS7003;47725;47.912;7.356;2024-01-06T02:52:11;28.50;23.91;
61804;PMS7003;47725;47.912;7.356;2024-01-06T02:56:12;28.50;23.91;
61804;PMS7003;47725;47.912;7.356;2024-01-06T03:00:12;23.00;20.24;
61804;PMS7003;47725;47.912;7.356;2024-01-06T03:04:11;23.00;20.24;
61804;PMS7003;47725;47.912;7.356;2024-01-06T03:08:11;23.91;19.32;
61804;PMS7003;47725;47.912;7.356;2024-01-06T03:12:11;23.91;19.32;
61804;PMS7003;47725;47.912;7.356;2024-01-06T03:16:11;23.91;19.32;
61804;PMS7003;47725;47.912;7.356;2024-01-06T03:20:11;21.15;18.39;
61804;PMS7003;47725;47.912;7.356;2024-01-06T03:24:11;21.15;18.39;
61804;PMS7003;47725;47.912;7.356;2024-01-06T03:28:11;20.23;20.23;
61804;PMS7003;47725;47.912;7.356;2024-01-06T03:32:11;20.23;20.23;
61804;PMS7003;47725;47.912;7.356;2024-01-06T03:36:12;20.23;20.23;
61804;PMS7003;47725;47.912;7.356;2024-01-06T03:40:12;20.21;16.54;
61804;PMS7003;47725;47.912;7.356;2024-01-06T03:44:11;20.21;16.54;
61804;PMS7003;47725;47.912;7.356;2024-01-06T03:48:11;17.50;17.50;
61804;PMS7003;47725;47.912;7.356;2024-01-06T03:52:11;17.50;17.50;
61804;PMS7003;47725;47.912;7.356;2024-01-06T03:56:12;17.50;17.50;
61804;PMS7003;47725;47.912;7.356;2024-01-06T04:00:12;25.77;22.09;
61804;PMS7003;47725;47.912;7.356;2024-01-06T04:04:12;25.77;22.09;
61804;PMS7003;47725;47.912;7.356;2024-01-06T04:08:11;15.65;15.65;
61804;PMS7003;47725;47.912;7.356;2024-01-06T04:12:12;15.65;15.65;
61804;PMS7003;47725;47.912;7.356;2024-01-06T04:16:11;15.65;15.65;
61804;PMS7003;47725;47.912;7.356;2024-01-06T04:20:11;17.49;15.65;
61804;PMS7003;47725;47.912;7.356;2024-01-06T04:24:11;17.49;15.65;
61804;PMS7003;47725;47.912;7.356;2024-01-06T04:28:11;16.58;16.58;
61804;PMS7003;47725;47.912;7.356;2024-01-06T04:32:11;16.58;16.58;
61804;PMS7003;47725;47.912;7.356;2024-01-06T04:36:11;16.58;16.58;
61804;PMS7003;47725;47.912;7.356;2024-01-06T04:40:11;23.95;20.27;
61804;PMS7003;47725;47.912;7.356;2024-01-06T04:44:11;23.95;20.27;
61804;PMS7003;47725;47.912;7.356;2024-01-06T04:48:11;20.23;15.64;
61804;PMS7003;47725;47.912;7.356;2024-01-06T04:52:11;20.23;15.64;
61804;PMS7003;47725;47.912;7.356;2024-01-06T04:56:11;20.23;15.64;
61804;PMS7003;47725;47.912;7.356;2024-01-06T05:00:12;13.79;13.79;
61804;PMS7003;47725;47.912;7.356;2024-01-06T05:04:11;13.79;13.79;
61804;PMS7003;47725;47.912;7.356;2024-01-06T05:08:11;16.55;14.72;
61804;PMS7003;47725;47.912;7.356;2024-01-06T05:12:11;16.55;14.72;
61804;PMS7003;47725;47.912;7.356;2024-01-06T05:16:11;16.55;14.72;
61804;PMS7003;47725;47.912;7.356;2024-01-06T05:20:12;19.26;15.59;
61804;PMS7003;47725;47.912;7.356;2024-01-06T05:24:11;19.26;15.59;
61804;PMS7003;47725;47.912;7.356;2024-01-06T05:28:11;20.21;18.37;
61804;PMS7003;47725;47.912;7.356;2024-01-06T05:32:11;20.21;18.37;
61804;PMS7003;47725;47.912;7.356;2024-01-06T05:36:11;20.21;18.37;
61804;PMS7003;47725;47.912;7.356;2024-01-06T05:40:11;16.52;16.52;
61804;PMS7003;47725;47.912;7.356;2024-01-06T05:44:11;16.52;16.52;
61804;PMS7003;47725;47.912;7.356;2024-01-06T05:48:11;16.56;15.64;
61804;PMS7003;47725;47.912;7.356;2024-01-06T05:52:11;16.56;15.64;
61804;PMS7003;47725;47.912;7.356;2024-01-06T05:56:11;16.56;15.64;
61804;PMS7003;47725;47.912;7.356;2024-01-06T06:00:12;23.91;21.15;
61804;PMS7003;47725;47.912;7.356;2024-01-06T06:04:11;23.91;21.15;
61804;PMS7003;47725;47.912;7.356;2024-01-06T06:08:11;19.31;17.47;
61804;PMS7003;47725;47.912;7.356;2024-01-06T06:12:11;19.31;17.47;
61804;PMS7003;47725;47.912;7.356;2024-01-06T06:16:11;19.31;17.47;
61804;PMS7003;47725;47.912;7.356;2024-01-06T06:20:11;21.07;19.24;
61804;PMS7003;47725;47.912;7.356;2024-01-06T06:24:11;21.07;19.24;
61804;PMS7003;47725;47.912;7.356;2024-01-06T06:28:11;59.64;47.71;
61804;PMS7003;47725;47.912;7.356;2024-01-06T06:32:11;59.64;47.71;
61804;PMS7003;47725;47.912;7.356;2024-01-06T06:36:11;59.64;47.71;
61804;PMS7003;47725;47.912;7.356;2024-01-06T06:40:12;47.73;36.72;
61804;PMS7003;47725;47.912;7.356;2024-01-06T06:44:11;47.73;36.72;
61804;PMS7003;47725;47.912;7.356;2024-01-06T06:48:11;17.44;16.52;
61804;PMS7003;47725;47.912;7.356;2024-01-06T06:52:11;17.44;16.52;
61804;PMS7003;47725;47.912;7.356;2024-01-06T06:56:11;17.44;16.52;
61804;PMS7003;47725;47.912;7.356;2024-01-06T07:00:11;15.63;14.71;
61804;PMS7003;47725;47.912;7.356;2024-01-06T07:04:11;15.63;14.71;
61804;PMS7003;47725;47.912;7.356;2024-01-06T07:08:11;11.04;10.12;
61804;PMS7003;47725;47.912;7.356;2024-01-06T07:12:11;11.04;10.12;
61804;PMS7003;47725;47.912;7.356;2024-01-06T07:16:11;11.04;10.12;
61804;PMS7003;47725;47.912;7.356;2024-01-06T07:20:11;14.72;13.80;
61804;PMS7003;47725;47.912;7.356;2024-01-06T07:24:11;14.72;13.80;
61804;PMS7003;47725;47.912;7.356;2024-01-06T07:28:11;14.76;14.76;
61804;PMS7003;47725;47.912;7.356;2024-01-06T07:32:11;14.76;14.76;
61804;PMS7003;47725;47.912;7.356;2024-01-06T07:36:11;14.76;14.76;
61804;PMS7003;47725;47.912;7.356;2024-01-06T07:40:12;14.76;11.07;
61804;PMS7003;47725;47.912;7.356;2024-01-06T07:44:11;14.76;11.07;
61804;PMS7003;47725;47.912;7.356;2024-01-06T07:48:11;15.66;13.82;
61804;PMS7003;47725;47.912;7.356;2024-01-06T07:52:11;15.66;13.82;
61804;PMS7003;47725;47.912;7.356;2024-01-06T07:56:11;15.66;13.82;
61804;PMS7003;47725;47.912;7.356;2024-01-06T08:00:12;23.02;23.02;
61804;PMS7003;47725;47.912;7.356;2024-01-06T08:04:11;23.02;23.02;
61804;PMS7003;47725;47.912;7.356;2024-01-06T08:08:11;17.51;17.51;
61804;PMS7003;47725;47.912;7.356;2024-01-06T08:12:11;17.51;17.51;
61804;PMS7003;47725;47.912;7.356;2024-01-06T08:16:11;17.51;17.51;
61804;PMS7003;47725;47.912;7.356;2024-01-06T08:20:11;36.93;31.39;
61804;PMS7003;47725;47.912;7.356;2024-01-06T08:24:11;36.93;31.39;
61804;PMS7003;47725;47.912;7.356;2024-01-06T08:28:11;15.69;13.85;
61804;PMS7003;47725;47.912;7.356;2024-01-06T08:32:11;15.69;13.85;
61804;PMS7003;47725;47.912;7.356;2024-01-06T08:36:11;15.69;13.85;
61804;PMS7003;47725;47.912;7.356;2024-01-06T08:40:11;19.38;15.69;
61804;PMS7003;47725;47.912;7.356;2024-01-06T08:44:11;19.38;15.69;
61804;PMS7003;47725;47.912;7.356;2024-01-06T08:48:11;19.39;16.62;
61804;PMS7003;47725;47.912;7.356;2024-01-06T08:52:11;19.39;16.62;
61804;PMS7003;47725;47.912;7.356;2024-01-06T08:56:11;19.39;16.62;
61804;PMS7003;47725;47.912;7.356;2024-01-06T09:00:11;25.88;25.88;
61804;PMS7003;47725;47.912;7.356;2024-01-06T09:04:11;25.88;25.88;
61804;PMS7003;47725;47.912;7.356;2024-01-06T09:08:11;24.06;22.21;
61804;PMS7003;47725;47.912;7.356;2024-01-06T09:12:11;24.06;22.21;
61804;PMS7003;47725;47.912;7.356;2024-01-06T09:16:11;24.06;22.21;
61804;PMS7003;47725;47.912;7.356;2024-01-06T09:20:11;17.63;17.63;
61804;PMS7003;47725;47.912;7.356;2024-01-06T09:24:11;17.63;17.63;
61804;PMS7003;47725;47.912;7.356;2024-01-06T09:28:11;22.23;19.45;
61804;PMS7003;47725;47.912;7.356;2024-01-06T09:32:11;22.23;19.45;
61804;PMS7003;47725;47.912;7.356;2024-01-06T09:36:11;22.23;19.45;
61804;PMS7003;47725;47.912;7.356;2024-01-06T09:40:12;16.61;14.76;
61804;PMS7003;47725;47.912;7.356;2024-01-06T09:44:11;16.61;14.76;
61804;PMS7003;47725;47.912;7.356;2024-01-06T09:48:12;16.65;14.80;
61804;PMS7003;47725;47.912;7.356;2024-01-06T09:52:13;16.65;14.80;
61804;PMS7003;47725;47.912;7.356;2024-01-06T09:56:11;16.65;14.80;
61804;PMS7003;47725;47.912;7.356;2024-01-06T10:00:11;17.76;17.76;
61804;PMS7003;47725;47.912;7.356;2024-01-06T10:04:11;17.76;17.76;
61804;PMS7003;47725;47.912;7.356;2024-01-06T10:08:11;18.65;16.79;
61804;PMS7003;47725;47.912;7.356;2024-01-06T10:12:11;18.65;16.79;
61804;PMS7003;47725;47.912;7.356;2024-01-06T10:16:11;18.65;16.79;
61804;PMS7003;47725;47.912;7.356;2024-01-06T10:20:11;17.83;16.89;
61804;PMS7003;47725;47.912;7.356;2024-01-06T10:24:11;17.83;16.89;
61804;PMS7003;47725;47.912;7.356;2024-01-06T10:28:11;20.66;19.72;
61804;PMS7003;47725;47.912;7.356;2024-01-06T10:32:11;20.66;19.72;
61804;PMS7003;47725;47.912;7.356;2024-01-06T10:36:11;20.66;19.72;
61804;PMS7003;47725;47.912;7.356;2024-01-06T10:40:12;16.00;16.00;
61804;PMS7003;47725;47.912;7.356;2024-01-06T10:44:11;16.00;16.00;
61804;PMS7003;47725;47.912;7.356;2024-01-06T10:48:11;17.95;17.01;
61804;PMS7003;47725;47.912;7.356;2024-01-06T10:52:11;17.95;17.01;
61804;PMS7003;47725;47.912;7.356;2024-01-06T10:56:11;17.95;17.01;
61804;PMS7003;47725;47.912;7.356;2024-01-06T11:00:11;18.08;14.27;
61804;PMS7003;47725;47.912;7.356;2024-01-06T11:04:11;18.08;14.27;
61804;PMS7003;47725;47.912;7.356;2024-01-06T11:08:11;14.29;14.29;
61804;PMS7003;47725;47.912;7.356;2024-01-06T11:12:11;14.29;14.29;
61804;PMS7003;47725;47.912;7.356;2024-01-06T11:16:11;14.29;14.29;
61804;PMS7003;47725;47.912;7.356;2024-01-06T11:20:11;11.45;10.50;
61804;PMS7003;47725;47.912;7.356;2024-01-06T11:24:18;11.45;10.50;
61804;PMS7003;47725;47.912;7.356;2024-01-06T11:28:11;17.42;13.55;
61804;PMS7003;47725;47.912;7.356;2024-01-06T11:32:17;17.42;13.55;
61804;PMS7003;47725;47.912;7.356;2024-01-06T11:36:11;17.42;13.55;
61804;PMS7003;47725;47.912;7.356;2024-01-06T11:44:11;11.54;10.58;
61804;PMS7003;47725;47.912;7.356;2024-01-06T11:48:11;7.69;7.69;
61804;PMS7003;47725;47.912;7.356;2024-01-06T11:52:17;7.69;7.69;
61804;PMS7003;47725;47.912;7.356;2024-01-06T11:56:11;7.69;7.69;
61804;PMS7003;47725;47.912;7.356;2024-01-06T12:00:11;7.72;6.76;
61804;PMS7003;47725;47.912;7.356;2024-01-06T12:04:13;7.72;6.76;
61804;PMS7003;47725;47.912;7.356;2024-01-06T12:08:11;11.55;9.62;
61804;PMS7003;47725;47.912;7.356;2024-01-06T12:12:11;11.55;9.62;
61804;PMS7003;47725;47.912;7.356;2024-01-06T12:16:11;11.55;9.62;
61804;PMS7003;47725;47.912;7.356;2024-01-06T12:20:11;7.71;5.78;
61804;PMS7003;47725;47.912;7.356;2024-01-06T12:24:12;7.71;5.78;
61804;PMS7003;47725;47.912;7.356;2024-01-06T12:28:11;11.63;7.75;
61804;PMS7003;47725;47.912;7.356;2024-01-06T12:32:11;11.63;7.75;
61804;PMS7003;47725;47.912;7.356;2024-01-06T12:36:11;11.63;7.75;
61804;PMS7003;47725;47.912;7.356;2024-01-06T12:40:14;4.83;4.83;
61804;PMS7003;47725;47.912;7.356;2024-01-06T12:44:11;4.83;4.83;
61804;PMS7003;47725;47.912;7.356;2024-01-06T12:48:11;11.58;11.58;
61804;PMS7003;47725;47.912;7.356;2024-01-06T12:52:11;11.58;11.58;
61804;PMS7003;47725;47.912;7.356;2024-01-06T12:56:11;11.58;11.58;
61804;PMS7003;47725;47.912;7.356;2024-01-06T13:00:11;4.83;4.83;
61804;PMS7003;47725;47.912;7.356;2024-01-06T13:04:11;4.83;4.83;
61804;PMS7003;47725;47.912;7.356;2024-01-06T13:08:11;2.90;2.90;
61804;PMS7003;47725;47.912;7.356;2024-01-06T13:12:11;2.90;2.90;
61804;PMS7003;47725;47.912;7.356;2024-01-06T13:16:11;2.90;2.90;
61804;PMS7003;47725;47.912;7.356;2024-01-06T13:20:11;3.86;3.86;
61804;PMS7003;47725;47.912;7.356;2024-01-06T13:24:11;3.86;3.86;
61804;PMS7003;47725;47.912;7.356;2024-01-06T13:28:11;9.67;9.67;
61804;PMS7003;47725;47.912;7.356;2024-01-06T13:32:11;9.67;9.67;
61804;PMS7003;47725;47.912;7.356;2024-01-06T13:36:11;9.67;9.67;
61804;PMS7003;47725;47.912;7.356;2024-01-06T13:40:11;6.76;4.83;
61804;PMS7003;47725;47.912;7.356;2024-01-06T13:44:11;6.76;4.83;
61804;PMS7003;47725;47.912;7.356;2024-01-06T13:48:11;6.75;4.82;
61804;PMS7003;47725;47.912;7.356;2024-01-06T13:52:11;6.75;4.82;
61804;PMS7003;47725;47.912;7.356;2024-01-06T13:56:11;6.75;4.82;
61804;PMS7003;47725;47.912;7.356;2024-01-06T14:00:11;7.72;5.79;
61804;PMS7003;47725;47.912;7.356;2024-01-06T14:04:11;7.72;5.79;
61804;PMS7003;47725;47.912;7.356;2024-01-06T14:08:11;5.80;4.83;
61804;PMS7003;47725;47.912;7.356;2024-01-06T14:12:11;5.80;4.83;
61804;PMS7003;47725;47.912;7.356;2024-01-06T14:16:11;5.80;4.83;
61804;PMS7003;47725;47.912;7.356;2024-01-06T14:20:11;3.87;3.87;
61804;PMS7003;47725;47.912;7.356;2024-01-06T14:24:11;3.87;3.87;
61804;PMS7003;47725;47.912;7.356;2024-01-06T14:28:11;6.77;6.77;
61804;PMS7003;47725;47.912;7.356;2024-01-06T14:32:11;6.77;6.77;
61804;PMS7003;47725;47.912;7.356;2024-01-06T14:36:11;6.77;6.77;
61804;PMS7003;47725;47.912;7.356;2024-01-06T14:40:11;7.74;6.78;
61804;PMS7003;47725;47.912;7.356;2024-01-06T14:44:11;7.74;6.78;
61804;PMS7003;47725;47.912;7.356;2024-01-06T14:48:11;9.66;5.80;
61804;PMS7003;47725;47.912;7.356;2024-01-06T14:52:11;9.66;5.80;
61804;PMS7003;47725;47.912;7.356;2024-01-06T14:56:11;9.66;5.80;
61804;PMS7003;47725;47.912;7.356;2024-01-06T15:00:11;5.80;5.80;
61804;PMS7003;47725;47.912;7.356;2024-01-06T15:04:10;5.80;5.80;
61804;PMS7003;47725;47.912;7.356;2024-01-06T15:08:11;9.67;8.70;
61804;PMS7003;47725;47.912;7.356;2024-01-06T15:12:11;9.67;8.70;
61804;PMS7003;47725;47.912;7.356;2024-01-06T15:16:11;9.67;8.70;
61804;PMS7003;47725;47.912;7.356;2024-01-06T15:20:11;4.83;4.83;
61804;PMS7003;47725;47.912;7.356;2024-01-06T15:24:10;4.83;4.83;
61804;PMS7003;47725;47.912;7.356;2024-01-06T15:28:10;3.87;3.87;
61804;PMS7003;47725;47.912;7.356;2024-01-06T15:32:11;3.87;3.87;
61804;PMS7003;47725;47.912;7.356;2024-01-06T15:36:11;3.87;3.87;
61804;PMS7003;47725;47.912;7.356;2024-01-06T15:40:11;9.67;9.67;
61804;PMS7003;47725;47.912;7.356;2024-01-06T15:44:10;9.67;9.67;
61804;PMS7003;47725;47.912;7.356;2024-01-06T15:48:10;12.57;11.60;
61804;PMS7003;47725;47.912;7.356;2024-01-06T15:52:10;12.57;11.60;
61804;PMS7003;47725;47.912;7.356;2024-01-06T15:56:10;12.57;11.60;
61804;PMS7003;47725;47.912;7.356;2024-01-06T16:00:11;17.40;13.53;
61804;PMS7003;47725;47.912;7.356;2024-01-06T16:04:10;17.40;13.53;
61804;PMS7003;47725;47.912;7.356;2024-01-06T16:08:11;10.64;8.70;
61804;PMS7003;47725;47.912;7.356;2024-01-06T16:12:10;10.64;8.70;
61804;PMS7003;47725;47.912;7.356;2024-01-06T16:16:10;10.64;8.70;
61804;PMS7003;47725;47.912;7.356;2024-01-06T16:20:11;10.64;8.70;
61804;PMS7003;47725;47.912;7.356;2024-01-06T16:24:10;10.64;8.70;
61804;PMS7003;47725;47.912;7.356;2024-01-06T16:28:10;12.56;10.63;
61804;PMS7003;47725;47.912;7.356;2024-01-06T16:32:10;12.56;10.63;
61804;PMS7003;47725;47.912;7.356;2024-01-06T16:36:10;12.56;10.63;
61804;PMS7003;47725;47.912;7.356;2024-01-06T16:40:11;22.24;19.34;
61804;PMS7003;47725;47.912;7.356;2024-01-06T16:44:10;22.24;19.34;
61804;PMS7003;47725;47.912;7.356;2024-01-06T16:48:10;21.28;13.54;
61804;PMS7003;47725;47.912;7.356;2024-01-06T16:52:10;21.28;13.54;
61804;PMS7003;47725;47.912;7.356;2024-01-06T16:56:10;21.28;13.54;
61804;PMS7003;47725;47.912;7.356;2024-01-06T17:00:11;3.86;3.86;
61804;PMS7003;47725;47.912;7.356;2024-01-06T17:04:10;3.86;3.86;
61804;PMS7003;47725;47.912;7.356;2024-01-06T17:08:10;9.64;5.79;
61804;PMS7003;47725;47.912;7.356;2024-01-06T17:12:10;9.64;5.79;
61804;PMS7003;47725;47.912;7.356;2024-01-06T17:16:10;9.64;5.79;
61804;PMS7003;47725;47.912;7.356;2024-01-06T17:20:11;4.82;4.82;
61804;PMS7003;47725;47.912;7.356;2024-01-06T17:24:10;4.82;4.82;
61804;PMS7003;47725;47.912;7.356;2024-01-06T17:28:10;10.59;9.63;
61804;PMS7003;47725;47.912;7.356;2024-01-06T17:32:10;10.59;9.63;
61804;PMS7003;47725;47.912;7.356;2024-01-06T17:36:10;10.59;9.63;
61804;PMS7003;47725;47.912;7.356;2024-01-06T17:40:11;28.87;22.13;
61804;PMS7003;47725;47.912;7.356;2024-01-06T17:44:10;28.87;22.13;
61804;PMS7003;47725;47.912;7.356;2024-01-06T17:48:10;23.10;18.29;
61804;PMS7003;47725;47.912;7.356;2024-01-06T17:52:10;23.10;18.29;
61804;PMS7003;47725;47.912;7.356;2024-01-06T17:56:10;23.10;18.29;
61804;PMS7003;47725;47.912;7.356;2024-01-06T18:00:11;34.62;28.85;
61804;PMS7003;47725;47.912;7.356;2024-01-06T18:04:10;34.62;28.85;
61804;PMS7003;47725;47.912;7.356;2024-01-06T18:08:10;22.11;16.35;
61804;PMS7003;47725;47.912;7.356;2024-01-06T18:12:10;22.11;16.35;
61804;PMS7003;47725;47.912;7.356;2024-01-06T18:16:13;22.11;16.35;
61804;PMS7003;47725;47.912;7.356;2024-01-06T18:20:11;27.90;25.01;
61804;PMS7003;47725;47.912;7.356;2024-01-06T18:24:10;27.90;25.01;
61804;PMS7003;47725;47.912;7.356;2024-01-06T18:28:10;9.62;9.62;
61804;PMS7003;47725;47.912;7.356;2024-01-06T18:32:10;9.62;9.62;
61804;PMS7003;47725;47.912;7.356;2024-01-06T18:36:10;9.62;9.62;
61804;PMS7003;47725;47.912;7.356;2024-01-06T18:40:11;12.49;11.53;
61804;PMS7003;47725;47.912;7.356;2024-01-06T18:44:10;12.49;11.53;
61804;PMS7003;47725;47.912;7.356;2024-01-06T18:48:10;11.52;11.52;
61804;PMS7003;47725;47.912;7.356;2024-01-06T18:52:10;11.52;11.52;
61804;PMS7003;47725;47.912;7.356;2024-01-06T18:56:10;11.52;11.52;
61804;PMS7003;47725;47.912;7.356;2024-01-06T19:00:11;22.07;20.15;
61804;PMS7003;47725;47.912;7.356;2024-01-06T19:04:10;22.07;20.15;
61804;PMS7003;47725;47.912;7.356;2024-01-06T19:08:10;11.51;10.55;
61804;PMS7003;47725;47.912;7.356;2024-01-06T19:12:10;11.51;10.55;
61804;PMS7003;47725;47.912;7.356;2024-01-06T19:16:10;11.51;10.55;
61804;PMS7003;47725;47.912;7.356;2024-01-06T19:20:11;5.75;5.75;
61804;PMS7003;47725;47.912;7.356;2024-01-06T19:24:10;5.75;5.75;
61804;PMS7003;47725;47.912;7.356;2024-01-06T19:28:10;13.42;10.54;
61804;PMS7003;47725;47.912;7.356;2024-01-06T19:32:10;13.42;10.54;
61804;PMS7003;47725;47.912;7.356;2024-01-06T19:36:10;13.42;10.54;
61804;PMS7003;47725;47.912;7.356;2024-01-06T19:40:10;23.97;20.13;
61804;PMS7003;47725;47.912;7.356;2024-01-06T19:44:10;23.97;20.13;
61804;PMS7003;47725;47.912;7.356;2024-01-06T19:48:10;21.06;17.23;
61804;PMS7003;47725;47.912;7.356;2024-01-06T19:52:10;21.06;17.23;
61804;PMS7003;47725;47.912;7.356;2024-01-06T19:56:13;21.06;17.23;
61804;PMS7003;47725;47.912;7.356;2024-01-06T20:00:11;11.49;11.49;
61804;PMS7003;47725;47.912;7.356;2024-01-06T20:04:10;11.49;11.49;
61804;PMS7003;47725;47.912;7.356;2024-01-06T20:08:10;16.27;13.40;
61804;PMS7003;47725;47.912;7.356;2024-01-06T20:12:10;16.27;13.40;
61804;PMS7003;47725;47.912;7.356;2024-01-06T20:16:10;16.27;13.40;
61804;PMS7003;47725;47.912;7.356;2024-01-06T20:20:11;29.63;22.94;
61804;PMS7003;47725;47.912;7.356;2024-01-06T20:24:10;29.63;22.94;
61804;PMS7003;47725;47.912;7.356;2024-01-06T20:28:10;29.63;24.85;
61804;PMS7003;47725;47.912;7.356;2024-01-06T20:32:10;29.63;24.85;
61804;PMS7003;47725;47.912;7.356;2024-01-06T20:36:10;29.63;24.85;
61804;PMS7003;47725;47.912;7.356;2024-01-06T20:40:11;30.56;28.65;
61804;PMS7003;47725;47.912;7.356;2024-01-06T20:44:10;30.56;28.65;
61804;PMS7003;47725;47.912;7.356;2024-01-06T20:48:10;24.81;22.90;
61804;PMS7003;47725;47.912;7.356;2024-01-06T20:52:10;24.81;22.90;
61804;PMS7003;47725;47.912;7.356;2024-01-06T20:56:10;24.81;22.90;
61804;PMS7003;47725;47.912;7.356;2024-01-06T21:00:10;35.30;30.53;
61804;PMS7003;47725;47.912;7.356;2024-01-06T21:04:10;35.30;30.53;
61804;PMS7003;47725;47.912;7.356;2024-01-06T21:08:10;29.53;27.62;
61804;PMS7003;47725;47.912;7.356;2024-01-06T21:12:10;29.53;27.62;
61804;PMS7003;47725;47.912;7.356;2024-01-06T21:16:10;29.53;27.62;
61804;PMS7003;47725;47.912;7.356;2024-01-06T21:20:10;23.80;19.99;
61804;PMS7003;47725;47.912;7.356;2024-01-06T21:24:10;23.80;19.99;
61804;PMS7003;47725;47.912;7.356;2024-01-06T21:28:10;17.14;16.19;
61804;PMS7003;47725;47.912;7.356;2024-01-06T21:32:10;17.14;16.19;
61804;PMS7003;47725;47.912;7.356;2024-01-06T21:36:10;17.14;16.19;
61804;PMS7003;47725;47.912;7.356;2024-01-06T21:40:11;23.75;23.75;
61804;PMS7003;47725;47.912;7.356;2024-01-06T21:44:10;23.75;23.75;
61804;PMS7003;47725;47.912;7.356;2024-01-06T21:48:12;31.30;28.46;
61804;PMS7003;47725;47.912;7.356;2024-01-06T21:52:10;31.30;28.46;
61804;PMS7003;47725;47.912;7.356;2024-01-06T21:56:10;31.30;28.46;
61804;PMS7003;47725;47.912;7.356;2024-01-06T22:00:11;28.48;27.53;
61804;PMS7003;47725;47.912;7.356;2024-01-06T22:04:10;28.48;27.53;
61804;PMS7003;47725;47.912;7.356;2024-01-06T22:08:10;38.89;34.15;
61804;PMS7003;47725;47.912;7.356;2024-01-06T22:12:10;38.89;34.15;
61804;PMS7003;47725;47.912;7.356;2024-01-06T22:16:10;38.89;34.15;
61804;PMS7003;47725;47.912;7.356;2024-01-06T22:20:10;30.36;26.56;
61804;PMS7003;47725;47.912;7.356;2024-01-06T22:24:10;30.36;26.56;
61804;PMS7003;47725;47.912;7.356;2024-01-06T22:28:10;32.24;25.60;
61804;PMS7003;47725;47.912;7.356;2024-01-06T22:32:10;32.24;25.60;
61804;PMS7003;47725;47.912;7.356;2024-01-06T22:36:13;32.24;25.60;
61804;PMS7003;47725;47.912;7.356;2024-01-06T22:40:10;19.93;18.98;
61804;PMS7003;47725;47.912;7.356;2024-01-06T22:44:10;19.93;18.98;
61804;PMS7003;47725;47.912;7.356;2024-01-06T22:48:10;22.80;21.85;
61804;PMS7003;47725;47.912;7.356;2024-01-06T22:52:10;22.80;21.85;
61804;PMS7003;47725;47.912;7.356;2024-01-06T22:56:10;22.80;21.85;
61804;PMS7003;47725;47.912;7.356;2024-01-06T23:00:11;14.25;14.25;
61804;PMS7003;47725;47.912;7.356;2024-01-06T23:04:10;14.25;14.25;
61804;PMS7003;47725;47.912;7.356;2024-01-06T23:08:10;19.00;18.05;
61804;PMS7003;47725;47.912;7.356;2024-01-06T23:12:10;19.00;18.05;
61804;PMS7003;47725;47.912;7.356;2024-01-06T23:16:10;19.00;18.05;
61804;PMS7003;47725;47.912;7.356;2024-01-06T23:20:11;21.84;20.89;
61804;PMS7003;47725;47.912;7.356;2024-01-06T23:24:10;21.84;20.89;
61804;PMS7003;47725;47.912;7.356;2024-01-06T23:28:10;18.00;18.00;
61804;PMS7003;47725;47.912;7.356;2024-01-06T23:32:10;18.00;18.00;
61804;PMS7003;47725;47.912;7.356;2024-01-06T23:36:10;18.00;18.00;
61804;PMS7003;47725;47.912;7.356;2024-01-06T23:40:11;19.88;17.99;
61804;PMS7003;47725;47.912;7.356;2024-01-06T23:44:10;19.88;17.99;
61804;PMS7003;47725;47.912;7.356;2024-01-06T23:48:10;18.00;16.11;
61804;PMS7003;47725;47.912;7.356;2024-01-06T23:52:10;18.00;16.11;
61804;PMS7003;47725;47.912;7.356;2024-01-06T23:56:10;18.00;16.11;
